createdAt,value
2022-09-22T00:01:04.128Z,7.90
2022-09-22T00:03:06.682Z,7.90
2022-09-22T00:05:09.362Z,7.90
2022-09-22T00:07:12.002Z,7.90
2022-09-22T00:09:15.374Z,7.90
2022-09-22T00:11:19.387Z,7.80
2022-09-22T00:13:21.886Z,7.80
2022-09-22T00:15:24.394Z,7.80
2022-09-22T00:17:27.002Z,7.80
2022-09-22T00:19:31.016Z,7.80
2022-09-22T00:21:33.522Z,7.80
2022-09-22T00:23:36.695Z,7.80
2022-09-22T00:25:39.952Z,7.80
2022-09-22T00:27:42.414Z,7.80
2022-09-22T00:29:44.888Z,7.80
2022-09-22T00:31:47.463Z,7.80
2022-09-22T00:33:50.422Z,7.80
2022-09-22T00:35:59.525Z,7.80
2022-09-22T00:38:02.042Z,7.80
2022-09-22T00:40:05.668Z,7.80
2022-09-22T00:42:11.666Z,7.70
2022-09-22T00:44:30.489Z,7.80
2022-09-22T00:46:33.757Z,7.70
2022-09-22T00:48:38.938Z,7.70
2022-09-22T00:50:41.567Z,7.60
2022-09-22T00:52:46.083Z,7.50
2022-09-22T00:54:50.073Z,7.40
2022-09-22T00:56:54.425Z,7.40
2022-09-22T00:58:58.471Z,7.40
2022-09-22T01:01:01.216Z,7.40
2022-09-22T01:03:05.613Z,7.30
2022-09-22T01:05:09.008Z,7.30
2022-09-22T01:07:12.219Z,7.30
2022-09-22T01:09:15.804Z,7.30
2022-09-22T01:11:20.122Z,7.20
2022-09-22T01:13:24.687Z,7.30
2022-09-22T01:15:28.962Z,7.20
2022-09-22T01:17:33.485Z,7.20
2022-09-22T01:19:42.132Z,7.20
2022-09-22T01:21:46.945Z,7.20
2022-09-22T01:24:11.377Z,7.20
2022-09-22T01:26:22.206Z,7.20
2022-09-22T01:28:33.858Z,7.20
2022-09-22T01:30:37.584Z,7.20
2022-09-22T01:32:42.913Z,7.20
2022-09-22T01:34:45.997Z,7.20
2022-09-22T01:36:50.506Z,7.20
2022-09-22T01:38:56.939Z,7.10
2022-09-22T01:41:01.926Z,7.10
2022-09-22T01:43:08.036Z,7.00
2022-09-22T01:45:12.335Z,7.00
2022-09-22T01:47:16.594Z,7.00
2022-09-22T01:49:19.198Z,6.90
2022-09-22T01:53:42.822Z,6.90
2022-09-22T01:55:47.135Z,6.90
2022-09-22T01:57:51.421Z,6.90
2022-09-22T01:59:56.339Z,6.90
2022-09-22T02:04:18.154Z,6.90
2022-09-22T02:06:22.682Z,6.80
2022-09-22T02:08:27.498Z,6.80
2022-09-22T02:10:32.164Z,6.80
2022-09-22T02:12:35.622Z,6.80
2022-09-22T02:14:38.203Z,6.70
2022-09-22T02:16:42.579Z,6.70
2022-09-22T02:18:46.885Z,6.70
2022-09-22T02:20:51.276Z,6.60
2022-09-22T02:22:54.153Z,6.60
2022-09-22T02:24:56.663Z,6.50
2022-09-22T02:27:00.325Z,6.50
2022-09-22T02:29:04.670Z,6.50
2022-09-22T02:31:24.315Z,6.40
2022-09-22T02:33:14.082Z,6.40
2022-09-22T02:35:16.738Z,6.40
2022-09-22T02:37:21.553Z,6.40
2022-09-22T02:39:26.470Z,6.40
2022-09-22T02:41:31.190Z,6.40
2022-09-22T02:43:35.873Z,6.40
2022-09-22T02:45:40.506Z,6.40
2022-09-22T02:47:44.078Z,6.30
2022-09-22T02:49:47.090Z,6.30
2022-09-22T02:51:50.183Z,6.30
2022-09-22T02:53:52.799Z,6.30
2022-09-22T02:55:55.399Z,6.20
2022-09-22T02:57:57.874Z,6.30
2022-09-22T03:00:00.572Z,6.30
2022-09-22T03:02:03.238Z,6.30
2022-09-22T03:04:05.852Z,6.30
2022-09-22T03:06:08.390Z,6.30
2022-09-22T03:08:10.849Z,6.30
2022-09-22T03:10:13.453Z,6.40
2022-09-22T03:12:15.970Z,6.30
2022-09-22T03:14:18.439Z,6.30
2022-09-22T03:16:21.162Z,6.30
2022-09-22T03:18:23.834Z,6.40
2022-09-22T03:20:26.303Z,6.50
2022-09-22T03:22:28.902Z,6.40
2022-09-22T03:24:31.391Z,6.40
2022-09-22T03:26:34.332Z,6.40
2022-09-22T03:28:36.810Z,6.40
2022-09-22T03:30:39.849Z,6.40
2022-09-22T03:32:42.441Z,6.40
2022-09-22T03:34:44.914Z,6.40
2022-09-22T03:36:47.603Z,6.40
2022-09-22T03:38:51.830Z,6.30
2022-09-22T03:40:57.126Z,6.40
2022-09-22T03:43:00.777Z,6.40
2022-09-22T03:45:04.596Z,5.90
2022-09-22T03:47:07.157Z,6.40
2022-09-22T03:49:09.674Z,6.40
2022-09-22T03:53:32.455Z,6.40
2022-09-22T03:55:34.914Z,6.40
2022-09-22T03:57:37.403Z,6.40
2022-09-22T03:59:39.942Z,6.30
2022-09-22T04:01:42.543Z,6.30
2022-09-22T04:03:46.035Z,6.30
2022-09-22T04:05:51.307Z,6.20
2022-09-22T04:07:53.794Z,6.20
2022-09-22T04:09:57.002Z,6.20
2022-09-22T04:11:59.884Z,6.10
2022-09-22T04:14:03.290Z,6.10
2022-09-22T04:16:06.214Z,6.10
2022-09-22T04:18:09.399Z,6.00
2022-09-22T04:20:11.897Z,6.00
2022-09-22T04:22:14.393Z,6.00
2022-09-22T04:24:16.855Z,6.00
2022-09-22T04:26:19.387Z,6.00
2022-09-22T04:28:21.859Z,6.00
2022-09-22T04:30:24.362Z,6.00
2022-09-22T04:32:26.878Z,5.90
2022-09-22T04:34:29.393Z,5.90
2022-09-22T04:36:31.893Z,5.90
2022-09-22T04:38:34.423Z,5.80
2022-09-22T04:40:37.180Z,5.80
2022-09-22T04:42:39.710Z,5.80
2022-09-22T04:44:42.329Z,5.80
2022-09-22T04:46:45.546Z,5.80
2022-09-22T04:48:48.074Z,5.80
2022-09-22T04:50:50.542Z,5.80
2022-09-22T04:52:53.789Z,5.80
2022-09-22T04:54:56.255Z,5.80
2022-09-22T04:56:58.747Z,5.80
2022-09-22T04:59:01.558Z,5.80
2022-09-22T05:01:04.421Z,5.80
2022-09-22T05:03:08.684Z,5.70
2022-09-22T05:05:11.526Z,5.70
2022-09-22T05:07:14.323Z,5.70
2022-09-22T05:09:16.837Z,5.70
2022-09-22T05:11:21.186Z,5.70
2022-09-22T05:13:24.820Z,5.60
2022-09-22T05:15:27.469Z,5.60
2022-09-22T05:17:29.970Z,5.60
2022-09-22T05:19:32.458Z,5.60
2022-09-22T05:21:35.283Z,5.60
2022-09-22T05:23:39.250Z,5.60
2022-09-22T05:25:41.959Z,5.70
2022-09-22T05:27:45.866Z,5.70
2022-09-22T05:29:48.573Z,5.70
2022-09-22T05:31:51.175Z,5.70
2022-09-22T05:33:53.907Z,5.70
2022-09-22T05:35:56.432Z,5.60
2022-09-22T05:37:58.930Z,5.60
2022-09-22T05:40:01.713Z,5.60
2022-09-22T05:42:07.617Z,5.60
2022-09-22T05:44:08.860Z,5.60
2022-09-22T05:48:31.344Z,5.60
2022-09-22T05:50:34.087Z,5.60
2022-09-22T05:52:36.613Z,5.70
2022-09-22T05:54:39.089Z,5.70
2022-09-22T05:56:41.574Z,5.60
2022-09-22T05:58:44.094Z,5.60
2022-09-22T06:00:46.782Z,5.50
2022-09-22T06:02:49.326Z,5.60
2022-09-22T06:04:52.034Z,5.60
2022-09-22T06:06:54.508Z,5.60
2022-09-22T06:08:57.262Z,5.60
2022-09-22T06:10:59.978Z,5.60
2022-09-22T06:13:02.890Z,5.60
2022-09-22T06:15:06.892Z,5.60
2022-09-22T06:17:11.329Z,5.60
2022-09-22T06:19:15.218Z,5.60
2022-09-22T06:21:20.715Z,5.70
2022-09-22T06:23:26.585Z,5.70
2022-09-22T06:25:29.478Z,5.70
2022-09-22T06:27:33.897Z,5.80
2022-09-22T06:29:37.414Z,5.80
2022-09-22T06:31:42.141Z,5.80
2022-09-22T06:33:46.914Z,5.90
2022-09-22T06:35:50.051Z,5.90
2022-09-22T06:37:58.216Z,5.90
2022-09-22T06:40:01.948Z,5.90
2022-09-22T06:42:04.874Z,6.00
2022-09-22T06:44:10.294Z,6.00
2022-09-22T06:46:13.354Z,6.00
2022-09-22T06:48:15.903Z,6.20
2022-09-22T06:50:18.477Z,6.30
2022-09-22T06:52:20.898Z,6.60
2022-09-22T06:54:25.474Z,6.70
2022-09-22T06:56:27.786Z,6.90
2022-09-22T06:58:38.622Z,7.10
2022-09-22T07:00:34.601Z,7.30
2022-09-22T07:02:37.166Z,7.30
2022-09-22T07:04:39.626Z,7.50
2022-09-22T07:06:42.751Z,7.60
2022-09-22T07:08:46.427Z,7.60
2022-09-22T07:10:52.522Z,7.80
2022-09-22T07:12:55.866Z,7.80
2022-09-22T07:14:58.321Z,7.80
2022-09-22T07:17:00.846Z,7.80
2022-09-22T07:19:04.266Z,7.80
2022-09-22T07:21:08.158Z,7.80
2022-09-22T07:23:12.487Z,7.90
2022-09-22T07:25:15.754Z,7.90
2022-09-22T07:27:20.095Z,8.00
2022-09-22T07:29:22.769Z,8.00
2022-09-22T07:31:28.853Z,8.10
2022-09-22T07:33:30.089Z,8.20
2022-09-22T07:35:34.376Z,8.20
2022-09-22T07:37:38.655Z,8.20
2022-09-22T07:39:42.666Z,8.30
2022-09-22T07:41:46.155Z,8.40
2022-09-22T07:43:50.107Z,8.40
2022-09-22T07:45:55.014Z,8.50
2022-09-22T07:48:15.628Z,8.60
2022-09-22T07:52:34.597Z,8.80
2022-09-22T07:54:38.873Z,8.80
2022-09-22T07:56:42.276Z,8.90
2022-09-22T07:58:49.370Z,9.00
2022-09-22T08:00:51.877Z,9.10
2022-09-22T08:02:55.508Z,9.10
2022-09-22T08:05:00.217Z,9.20
2022-09-22T08:07:02.778Z,9.30
2022-09-22T08:09:07.100Z,9.50
2022-09-22T08:11:13.114Z,9.60
2022-09-22T08:13:15.641Z,9.70
2022-09-22T08:15:24.611Z,9.80
2022-09-22T08:17:24.463Z,9.90
2022-09-22T08:19:27.081Z,9.90
2022-09-22T08:21:32.384Z,10.00
2022-09-22T08:23:35.624Z,10.10
2022-09-22T08:25:38.626Z,10.10
2022-09-22T08:27:41.153Z,10.20
2022-09-22T08:29:43.766Z,10.30
2022-09-22T08:31:46.823Z,10.60
2022-09-22T08:33:51.326Z,10.70
2022-09-22T08:35:54.967Z,10.90
2022-09-22T08:37:57.461Z,11.20
2022-09-22T08:39:59.930Z,11.40
2022-09-22T08:42:07.935Z,11.40
2022-09-22T08:44:17.263Z,11.40
2022-09-22T08:46:19.908Z,11.50
2022-09-22T08:48:48.171Z,11.70
2022-09-22T08:51:10.881Z,11.80
2022-09-22T08:53:16.234Z,11.80
2022-09-22T08:55:20.509Z,11.90
2022-09-22T08:57:26.910Z,12.00
2022-09-22T08:59:31.581Z,12.10
2022-09-22T09:01:45.156Z,12.40
2022-09-22T09:03:51.827Z,12.60
2022-09-22T09:05:59.745Z,12.80
2022-09-22T09:08:04.433Z,13.00
2022-09-22T09:10:09.803Z,13.20
2022-09-22T09:12:19.359Z,13.40
2022-09-22T09:14:25.999Z,13.50
2022-09-22T09:16:37.156Z,13.80
2022-09-22T09:18:39.262Z,14.00
2022-09-22T09:20:43.671Z,14.00
2022-09-22T09:22:48.608Z,14.30
2022-09-22T09:26:58.710Z,14.70
2022-09-22T09:29:04.076Z,14.80
2022-09-22T09:31:10.437Z,14.90
2022-09-22T09:33:19.886Z,15.00
2022-09-22T09:35:25.702Z,15.30
2022-09-22T09:37:28.799Z,15.50
2022-09-22T09:39:32.676Z,15.80
2022-09-22T09:41:37.827Z,16.00
2022-09-22T09:43:42.517Z,16.20
2022-09-22T09:45:48.916Z,16.30
2022-09-22T09:47:59.123Z,16.50
2022-09-22T09:50:00.372Z,16.60
2022-09-22T09:52:06.683Z,16.70
2022-09-22T09:56:24.571Z,16.90
2022-09-22T09:58:45.387Z,17.10
2022-09-22T10:00:55.852Z,17.30
2022-09-22T10:03:04.443Z,17.50
2022-09-22T10:05:08.914Z,17.50
2022-09-22T10:07:13.522Z,17.70
2022-09-22T10:09:24.104Z,17.70
2022-09-22T10:11:30.997Z,17.80
2022-09-22T10:13:34.722Z,17.70
2022-09-22T10:15:37.886Z,17.70
2022-09-22T10:17:41.310Z,17.70
2022-09-22T10:19:43.830Z,18.00
2022-09-22T10:21:46.326Z,18.20
2022-09-22T10:23:49.106Z,18.40
2022-09-22T10:25:51.763Z,18.50
2022-09-22T10:28:01.350Z,18.50
2022-09-22T10:30:23.045Z,18.70
2022-09-22T10:32:25.767Z,18.70
2022-09-22T10:34:30.762Z,18.80
2022-09-22T10:36:34.662Z,18.80
2022-09-22T10:42:58.991Z,19.00
2022-09-22T10:45:03.270Z,18.90
2022-09-22T10:47:10.857Z,18.80
2022-09-22T10:49:15.264Z,18.40
2022-09-22T10:51:21.550Z,18.40
2022-09-22T10:53:33.774Z,18.60
2022-09-22T10:55:38.182Z,18.50
2022-09-22T10:57:45.901Z,18.50
2022-09-22T10:59:52.548Z,18.40
2022-09-22T11:01:59.500Z,18.50
2022-09-22T11:04:12.991Z,18.60
2022-09-22T11:06:43.496Z,18.60
2022-09-22T11:09:06.010Z,18.80
2022-09-22T11:11:30.066Z,18.90
2022-09-22T11:13:36.230Z,18.80
2022-09-22T11:15:55.286Z,18.90
2022-09-22T11:20:22.874Z,18.60
2022-09-22T11:22:29.651Z,18.70
2022-09-22T11:24:39.811Z,18.90
2022-09-22T11:26:52.227Z,19.10
2022-09-22T11:28:57.911Z,19.30
2022-09-22T11:31:00.566Z,19.40
2022-09-22T11:33:31.592Z,19.60
2022-09-22T11:35:53.209Z,19.80
2022-09-22T11:38:01.117Z,19.80
2022-09-22T11:40:20.332Z,19.80
2022-09-22T11:42:26.816Z,19.70
2022-09-22T11:44:37.489Z,19.40
2022-09-22T11:46:43.024Z,19.20
2022-09-22T11:48:49.334Z,19.10
2022-09-22T11:50:59.369Z,18.70
2022-09-22T11:53:21.726Z,18.70
2022-09-22T11:55:26.504Z,18.50
2022-09-22T11:57:30.862Z,18.20
2022-09-22T11:59:36.230Z,18.10
2022-09-22T12:01:39.586Z,18.10
2022-09-22T12:05:58.651Z,18.30
2022-09-22T12:08:02.737Z,18.70
2022-09-22T12:10:07.530Z,19.00
2022-09-22T12:12:12.232Z,19.10
2022-09-22T12:16:53.357Z,19.10
2022-09-22T12:18:58.165Z,19.10
2022-09-22T12:21:02.579Z,19.10
2022-09-22T12:23:27.215Z,19.10
2022-09-22T12:28:00.775Z,18.70
2022-09-22T12:30:06.196Z,18.60
2022-09-22T12:32:19.903Z,18.60
2022-09-22T12:34:24.361Z,18.50
2022-09-22T12:36:30.821Z,18.40
2022-09-22T12:38:33.865Z,18.50
2022-09-22T12:40:38.616Z,18.60
2022-09-22T12:42:43.159Z,18.90
2022-09-22T12:44:47.438Z,19.10
2022-09-22T12:46:50.977Z,19.20
2022-09-22T12:48:53.532Z,19.20
2022-09-22T12:51:06.867Z,19.00
2022-09-22T12:53:12.668Z,19.00
2022-09-22T12:55:18.640Z,18.90
2022-09-22T12:57:28.074Z,18.80
2022-09-22T12:59:48.401Z,18.70
2022-09-22T13:02:00.588Z,18.60
2022-09-22T13:04:13.524Z,18.40
2022-09-22T13:06:38.289Z,18.40
2022-09-22T13:08:58.482Z,18.40
2022-09-22T13:11:01.209Z,18.40
2022-09-22T13:13:10.506Z,18.40
2022-09-22T13:15:17.263Z,18.50
2022-09-22T13:17:40.985Z,18.50
2022-09-22T13:19:55.254Z,18.60
2022-09-22T13:21:59.542Z,18.80
2022-09-22T13:24:03.302Z,18.90
2022-09-22T13:26:06.613Z,18.80
2022-09-22T13:28:17.088Z,18.90
2022-09-22T13:30:19.609Z,18.90
2022-09-22T13:32:25.902Z,18.90
2022-09-22T13:34:30.807Z,18.90
2022-09-22T13:36:33.677Z,18.90
2022-09-22T13:38:37.617Z,18.80
2022-09-22T13:40:42.433Z,18.80
2022-09-22T13:42:45.285Z,18.80
2022-09-22T13:44:50.539Z,18.80
2022-09-22T13:49:13.958Z,18.60
2022-09-22T13:51:17.343Z,18.40
2022-09-22T13:53:20.820Z,18.40
2022-09-22T13:55:25.917Z,18.40
2022-09-22T13:57:29.871Z,18.40
2022-09-22T13:59:37.105Z,18.30
2022-09-22T14:01:41.517Z,18.30
2022-09-22T14:03:44.343Z,18.30
2022-09-22T14:05:53.705Z,18.20
2022-09-22T14:08:11.159Z,18.20
2022-09-22T14:09:57.822Z,18.40
2022-09-22T14:12:01.266Z,18.60
2022-09-22T14:14:06.039Z,18.70
2022-09-22T14:16:12.380Z,18.80
2022-09-22T14:18:17.356Z,18.80
2022-09-22T14:20:21.840Z,18.90
2022-09-22T14:22:25.584Z,19.30
2022-09-22T14:24:28.657Z,19.50
2022-09-22T14:26:35.241Z,19.60
2022-09-22T14:28:39.627Z,19.60
2022-09-22T14:30:43.299Z,19.80
2022-09-22T14:32:48.480Z,19.90
2022-09-22T14:34:52.822Z,19.80
2022-09-22T14:36:55.619Z,19.70
2022-09-22T14:39:09.664Z,19.30
2022-09-22T14:41:07.478Z,19.30
2022-09-22T14:43:22.001Z,19.30
2022-09-22T14:45:26.360Z,19.30
2022-09-22T14:47:29.654Z,19.30
2022-09-22T14:49:35.352Z,19.20
2022-09-22T14:51:37.830Z,19.20
2022-09-22T14:53:43.285Z,19.20
2022-09-22T14:55:47.563Z,19.20
2022-09-22T14:57:50.558Z,19.20
2022-09-22T15:00:11.448Z,19.10
2022-09-22T15:02:32.408Z,19.00
2022-09-22T15:04:36.846Z,19.00
2022-09-22T15:06:39.633Z,19.10
2022-09-22T15:08:43.943Z,19.10
2022-09-22T15:10:53.387Z,19.00
2022-09-22T15:12:58.874Z,19.30
2022-09-22T15:15:01.474Z,19.20
2022-09-22T15:17:24.275Z,19.10
2022-09-22T15:19:27.290Z,19.20
2022-09-22T15:21:30.617Z,19.10
2022-09-22T15:23:37.386Z,19.00
2022-09-22T15:25:39.876Z,19.00
2022-09-22T15:27:42.515Z,19.10
2022-09-22T15:29:45.197Z,19.20
2022-09-22T15:31:47.780Z,19.20
2022-09-22T15:33:50.294Z,19.30
2022-09-22T15:35:55.824Z,19.20
2022-09-22T15:37:58.598Z,19.30
2022-09-22T15:40:01.570Z,19.40
2022-09-22T15:42:08.419Z,19.30
2022-09-22T15:44:09.085Z,19.40
2022-09-22T15:46:19.578Z,19.30
2022-09-22T15:48:32.038Z,19.40
2022-09-22T15:50:34.613Z,19.30
2022-09-22T15:52:37.132Z,19.30
2022-09-22T15:54:39.632Z,19.20
2022-09-22T15:56:42.299Z,19.20
2022-09-22T15:58:44.974Z,19.20
2022-09-22T16:00:47.835Z,19.40
2022-09-22T16:02:50.526Z,19.30
2022-09-22T16:04:54.865Z,19.30
2022-09-22T16:06:58.921Z,19.30
2022-09-22T16:09:01.609Z,19.20
2022-09-22T16:11:04.490Z,19.30
2022-09-22T16:13:07.022Z,19.10
2022-09-22T16:15:12.918Z,18.90
2022-09-22T16:17:15.603Z,18.90
2022-09-22T16:19:18.109Z,18.80
2022-09-22T16:21:22.609Z,18.70
2022-09-22T16:23:25.114Z,18.70
2022-09-22T16:25:29.376Z,18.60
2022-09-22T16:27:32.109Z,18.40
2022-09-22T16:29:36.722Z,18.30
2022-09-22T16:31:39.245Z,18.20
2022-09-22T16:35:57.110Z,17.90
2022-09-22T16:37:59.587Z,17.80
2022-09-22T16:40:02.562Z,17.70
2022-09-22T16:42:05.543Z,17.70
2022-09-22T16:44:08.888Z,17.60
2022-09-22T16:46:27.438Z,17.60
2022-09-22T16:48:31.969Z,17.50
2022-09-22T16:50:37.527Z,17.50
2022-09-22T16:52:40.191Z,17.30
2022-09-22T16:54:42.722Z,17.30
2022-09-22T16:56:45.870Z,17.20
2022-09-22T16:58:48.391Z,17.10
2022-09-22T17:00:51.094Z,17.10
2022-09-22T17:02:53.919Z,17.10
2022-09-22T17:04:56.425Z,17.10
2022-09-22T17:06:58.907Z,17.10
2022-09-22T17:09:01.394Z,17.10
2022-09-22T17:11:04.973Z,17.00
2022-09-22T17:13:07.888Z,16.90
2022-09-22T17:15:12.115Z,16.90
2022-09-22T17:17:14.623Z,16.80
2022-09-22T17:19:18.937Z,16.70
2022-09-22T17:21:21.467Z,16.50
2022-09-22T17:23:24.127Z,16.50
2022-09-22T17:25:28.412Z,16.40
2022-09-22T17:27:30.930Z,16.30
2022-09-22T17:29:34.443Z,16.10
2022-09-22T17:31:37.011Z,16.00
2022-09-22T17:33:42.047Z,15.90
2022-09-22T17:35:44.524Z,15.70
2022-09-22T17:37:48.338Z,15.50
2022-09-22T17:39:50.870Z,15.40
2022-09-22T17:41:54.434Z,15.20
2022-09-22T17:43:58.164Z,15.00
2022-09-22T17:46:00.987Z,14.90
2022-09-22T17:48:21.362Z,14.80
2022-09-22T17:50:41.938Z,14.70
2022-09-22T17:53:02.413Z,14.60
2022-09-22T17:55:08.686Z,14.60
2022-09-22T17:57:11.878Z,14.40
2022-09-22T17:59:14.430Z,14.40
2022-09-22T18:01:18.568Z,14.30
2022-09-22T18:03:21.005Z,14.30
2022-09-22T18:05:25.986Z,14.30
2022-09-22T18:07:28.550Z,14.30
2022-09-22T18:09:31.659Z,14.20
2022-09-22T18:11:34.746Z,14.20
2022-09-22T18:13:39.648Z,14.10
2022-09-22T18:15:42.226Z,13.90
2022-09-22T18:17:44.753Z,13.90
2022-09-22T18:19:47.226Z,13.80
2022-09-22T18:21:50.142Z,13.70
2022-09-22T18:23:52.637Z,13.70
2022-09-22T18:25:55.456Z,13.50
2022-09-22T18:27:59.743Z,13.50
2022-09-22T18:30:04.046Z,13.40
2022-09-22T18:32:06.619Z,13.30
2022-09-22T18:34:09.256Z,13.30
2022-09-22T18:36:11.863Z,13.20
2022-09-22T18:38:14.330Z,13.20
2022-09-22T18:40:17.140Z,13.20
2022-09-22T18:42:20.736Z,13.20
2022-09-22T18:44:24.242Z,13.20
2022-09-22T18:46:28.859Z,13.10
2022-09-22T18:48:32.601Z,13.10
2022-09-22T18:50:35.202Z,13.10
2022-09-22T18:52:39.677Z,13.00
2022-09-22T18:54:42.460Z,13.00
2022-09-22T18:56:45.781Z,13.00
2022-09-22T18:58:48.253Z,13.00
2022-09-22T19:00:51.317Z,13.00
2022-09-22T19:02:53.849Z,13.00
2022-09-22T19:04:56.405Z,13.00
2022-09-22T19:07:16.557Z,13.00
2022-09-22T19:09:19.619Z,13.00
2022-09-22T19:11:22.130Z,13.00
2022-09-22T19:13:25.614Z,13.00
2022-09-22T19:15:28.134Z,12.90
2022-09-22T19:17:30.626Z,12.90
2022-09-22T19:19:33.199Z,12.80
2022-09-22T19:21:37.490Z,12.70
2022-09-22T19:23:41.142Z,12.50
2022-09-22T19:25:43.760Z,12.50
2022-09-22T19:27:46.264Z,12.50
2022-09-22T19:29:50.048Z,12.40
2022-09-22T19:31:54.713Z,12.40
2022-09-22T19:33:57.174Z,12.30
2022-09-22T19:35:59.736Z,12.20
2022-09-22T19:38:02.930Z,12.20
2022-09-22T19:40:06.654Z,12.20
2022-09-22T19:42:09.205Z,12.00
2022-09-22T19:44:11.701Z,12.10
2022-09-22T19:46:14.215Z,12.10
2022-09-22T19:48:16.714Z,11.80
2022-09-22T19:50:19.293Z,11.80
2022-09-22T19:54:40.136Z,11.80
2022-09-22T19:56:42.679Z,11.80
2022-09-22T19:58:45.493Z,11.80
2022-09-22T20:00:47.979Z,11.80
2022-09-22T20:02:50.728Z,11.70
2022-09-22T20:04:54.963Z,11.80
2022-09-22T20:06:57.610Z,11.80
2022-09-22T20:09:02.427Z,11.70
2022-09-22T20:13:38.043Z,11.70
2022-09-22T20:15:40.676Z,11.50
2022-09-22T20:17:45.383Z,11.40
2022-09-22T20:19:47.860Z,11.30
2022-09-22T20:21:50.868Z,11.30
2022-09-22T20:23:53.971Z,11.30
2022-09-22T20:25:56.594Z,11.30
2022-09-22T20:27:59.694Z,11.30
2022-09-22T20:30:02.913Z,11.20
2022-09-22T20:32:06.838Z,11.20
2022-09-22T20:34:12.136Z,11.20
2022-09-22T20:36:14.930Z,11.20
2022-09-22T20:38:17.724Z,11.10
2022-09-22T20:40:22.419Z,11.00
2022-09-22T20:42:25.783Z,10.90
2022-09-22T20:44:28.462Z,10.80
2022-09-22T20:46:31.220Z,10.80
2022-09-22T20:48:33.962Z,10.80
2022-09-22T20:50:36.653Z,10.80
2022-09-22T20:52:40.541Z,10.80
2022-09-22T20:54:43.425Z,10.80
2022-09-22T20:56:48.022Z,10.80
2022-09-22T20:58:50.768Z,10.70
2022-09-22T21:00:54.969Z,10.80
2022-09-22T21:03:00.917Z,10.70
2022-09-22T21:05:03.940Z,10.70
2022-09-22T21:07:06.657Z,10.70
2022-09-22T21:09:27.477Z,10.60
2022-09-22T21:11:30.483Z,10.50
2022-09-22T21:13:33.673Z,10.40
2022-09-22T21:15:36.389Z,10.40
2022-09-22T21:17:43.681Z,10.40
2022-09-22T21:19:44.684Z,10.40
2022-09-22T21:21:47.401Z,10.30
2022-09-22T21:23:50.103Z,10.30
2022-09-22T21:25:56.260Z,10.30
2022-09-22T21:27:59.002Z,10.40
2022-09-22T21:30:01.692Z,10.30
2022-09-22T21:32:04.951Z,10.30
2022-09-22T21:34:08.090Z,10.30
2022-09-22T21:36:13.154Z,10.30
2022-09-22T21:38:16.666Z,10.20
2022-09-22T21:40:19.590Z,10.10
2022-09-22T21:42:22.357Z,10.10
2022-09-22T21:44:25.047Z,10.20
2022-09-22T21:48:43.120Z,10.10
2022-09-22T21:50:45.878Z,10.00
2022-09-22T21:52:48.357Z,10.00
2022-09-22T21:54:50.955Z,10.00
2022-09-22T21:56:53.412Z,10.00
2022-09-22T21:58:56.481Z,10.00
2022-09-22T22:00:59.410Z,10.00
2022-09-22T22:03:19.591Z,9.90
2022-09-22T22:05:22.190Z,9.90
2022-09-22T22:07:24.690Z,9.90
2022-09-22T22:09:27.209Z,9.70
2022-09-22T22:11:32.137Z,9.80
2022-09-22T22:13:35.531Z,9.80
2022-09-22T22:15:39.449Z,9.80
2022-09-22T22:17:42.003Z,9.70
2022-09-22T22:19:44.698Z,9.70
2022-09-22T22:21:47.781Z,9.70
2022-09-22T22:23:51.654Z,9.70
2022-09-22T22:25:57.202Z,9.70
2022-09-22T22:27:59.678Z,9.70
2022-09-22T22:30:02.211Z,9.70
2022-09-22T22:32:05.533Z,9.60
2022-09-22T22:34:09.853Z,9.60
2022-09-22T22:36:13.758Z,9.60
2022-09-22T22:38:16.399Z,9.50
2022-09-22T22:40:19.105Z,9.50
2022-09-22T22:42:21.758Z,9.50
2022-09-22T22:44:24.233Z,9.40
2022-09-22T22:46:26.871Z,9.40
2022-09-22T22:48:30.590Z,9.40
2022-09-22T22:50:33.096Z,9.40
2022-09-22T22:52:37.445Z,9.30
2022-09-22T22:54:40.054Z,9.30
2022-09-22T22:56:44.331Z,9.20
2022-09-22T22:58:47.672Z,9.20
2022-09-22T23:00:50.365Z,9.20
2022-09-22T23:02:52.883Z,9.10
2022-09-22T23:04:57.166Z,9.10
2022-09-22T23:06:59.617Z,9.00
2022-09-22T23:09:02.321Z,9.00
2022-09-22T23:11:05.937Z,8.90
2022-09-22T23:13:08.559Z,8.90
2022-09-22T23:15:11.188Z,8.80
2022-09-22T23:17:15.732Z,8.80
2022-09-22T23:19:18.302Z,8.70
2022-09-22T23:21:21.333Z,8.70
2022-09-22T23:23:23.781Z,8.70
2022-09-22T23:25:26.269Z,8.70
2022-09-22T23:27:28.769Z,8.70
2022-09-22T23:29:31.331Z,8.60
2022-09-22T23:31:33.841Z,8.60
2022-09-22T23:33:36.707Z,8.60
2022-09-22T23:35:39.610Z,8.60
2022-09-22T23:37:42.106Z,8.50
2022-09-22T23:39:44.574Z,8.60
2022-09-22T23:41:47.043Z,8.50
2022-09-22T23:43:49.725Z,8.50
2022-09-22T23:45:52.623Z,8.50
2022-09-22T23:47:55.181Z,8.50
2022-09-22T23:50:18.833Z,8.50
2022-09-22T23:52:23.516Z,8.40
2022-09-22T23:54:26.248Z,8.40
2022-09-22T23:56:29.106Z,8.40
2022-09-22T23:58:32.573Z,8.40
